createdAt,value
2022-07-26T00:00:15.463Z,20.70
2022-07-26T00:02:48.007Z,20.60
2022-07-26T00:05:17.280Z,20.60
2022-07-26T00:07:44.704Z,20.50
2022-07-26T00:10:12.603Z,20.70
2022-07-26T00:12:40.044Z,20.70
2022-07-26T00:15:10.269Z,20.60
2022-07-26T00:17:37.316Z,20.50
2022-07-26T00:20:05.127Z,20.50
2022-07-26T00:22:32.175Z,20.40
2022-07-26T00:24:59.180Z,20.40
2022-07-26T00:27:26.221Z,20.40
2022-07-26T00:29:53.485Z,20.40
2022-07-26T00:32:20.425Z,20.20
2022-07-26T00:34:47.355Z,20.20
2022-07-26T00:37:19.958Z,20.20
2022-07-26T00:39:47.311Z,20.20
2022-07-26T00:42:14.262Z,20.10
2022-07-26T00:44:43.593Z,20.00
2022-07-26T00:47:13.202Z,20.10
2022-07-26T00:49:40.861Z,20.10
2022-07-26T00:52:09.138Z,20.00
2022-07-26T00:54:38.055Z,19.90
2022-07-26T00:57:05.623Z,20.00
2022-07-26T00:59:32.978Z,20.20
2022-07-26T01:02:00.096Z,20.00
2022-07-26T01:04:27.214Z,19.90
2022-07-26T01:06:54.657Z,19.80
2022-07-26T01:09:21.624Z,19.80
2022-07-26T01:11:48.600Z,19.70
2022-07-26T01:14:15.856Z,19.70
2022-07-26T01:16:42.910Z,19.80
2022-07-26T01:19:09.939Z,19.70
2022-07-26T01:21:36.864Z,19.80
2022-07-26T01:24:04.199Z,20.00
2022-07-26T01:26:31.201Z,20.10
2022-07-26T01:28:58.204Z,20.00
2022-07-26T01:31:25.279Z,19.90
2022-07-26T01:33:52.603Z,19.90
2022-07-26T01:36:19.815Z,19.90
2022-07-26T01:38:46.808Z,19.90
2022-07-26T01:41:14.057Z,19.90
2022-07-26T01:43:41.153Z,20.00
2022-07-26T01:46:09.073Z,20.10
2022-07-26T01:48:37.058Z,20.20
2022-07-26T01:51:04.340Z,20.30
2022-07-26T01:53:31.453Z,20.20
2022-07-26T01:55:58.779Z,20.30
2022-07-26T01:58:25.673Z,20.30
2022-07-26T02:00:52.612Z,20.40
2022-07-26T02:03:19.538Z,20.30
2022-07-26T02:05:46.557Z,20.00
2022-07-26T02:08:13.624Z,20.00
2022-07-26T02:10:40.612Z,20.00
2022-07-26T02:13:07.830Z,19.90
2022-07-26T02:15:35.325Z,19.70
2022-07-26T02:18:02.293Z,19.70
2022-07-26T02:20:29.250Z,19.70
2022-07-26T02:22:56.138Z,19.70
2022-07-26T02:25:23.078Z,19.70
2022-07-26T02:27:50.174Z,19.60
2022-07-26T02:30:17.158Z,19.50
2022-07-26T02:32:44.148Z,19.30
2022-07-26T02:35:11.796Z,19.30
2022-07-26T02:37:43.920Z,19.40
2022-07-26T02:40:16.923Z,19.30
2022-07-26T02:42:45.983Z,19.30
2022-07-26T02:45:12.973Z,19.30
2022-07-26T02:47:50.743Z,19.20
2022-07-26T02:50:18.729Z,19.10
2022-07-26T02:52:46.193Z,19.10
2022-07-26T02:55:13.275Z,19.20
2022-07-26T02:57:45.488Z,19.30
2022-07-26T03:00:16.194Z,19.30
2022-07-26T03:02:43.441Z,19.30
2022-07-26T03:05:11.148Z,19.40
2022-07-26T03:07:38.386Z,19.40
2022-07-26T03:10:05.997Z,19.30
2022-07-26T03:12:33.023Z,19.30
2022-07-26T03:15:00.419Z,19.40
2022-07-26T03:17:27.389Z,19.50
2022-07-26T03:19:54.436Z,19.50
2022-07-26T03:22:21.356Z,19.70
2022-07-26T03:24:48.412Z,19.70
2022-07-26T03:27:15.480Z,19.70
2022-07-26T03:29:42.418Z,19.80
2022-07-26T03:32:09.325Z,19.80
2022-07-26T03:34:36.349Z,20.00
2022-07-26T03:37:03.748Z,20.20
2022-07-26T03:39:30.845Z,20.10
2022-07-26T03:41:57.901Z,20.10
2022-07-26T03:44:24.844Z,20.20
2022-07-26T03:46:51.956Z,20.30
2022-07-26T03:49:19.108Z,20.40
2022-07-26T03:51:46.124Z,20.50
2022-07-26T03:54:13.121Z,20.40
2022-07-26T03:56:40.648Z,20.60
2022-07-26T03:59:09.565Z,20.70
2022-07-26T04:01:38.127Z,20.80
2022-07-26T04:04:05.288Z,20.80
2022-07-26T04:06:36.425Z,21.00
2022-07-26T04:09:05.568Z,21.10
2022-07-26T04:11:33.726Z,21.20
2022-07-26T04:14:01.611Z,21.10
2022-07-26T04:16:28.651Z,21.10
2022-07-26T04:18:55.741Z,21.20
2022-07-26T04:21:23.095Z,21.20
2022-07-26T04:23:51.535Z,21.20
2022-07-26T04:26:20.244Z,21.10
2022-07-26T04:28:47.518Z,21.10
2022-07-26T04:31:14.726Z,21.10
2022-07-26T04:33:42.161Z,21.20
2022-07-26T04:36:09.449Z,21.20
2022-07-26T04:38:36.447Z,21.30
2022-07-26T04:41:03.689Z,21.30
2022-07-26T04:43:30.713Z,21.40
2022-07-26T04:45:57.944Z,21.40
2022-07-26T04:48:25.383Z,21.40
2022-07-26T04:50:52.710Z,21.50
2022-07-26T04:53:19.894Z,21.50
2022-07-26T04:55:46.826Z,21.60
2022-07-26T04:58:13.841Z,21.60
2022-07-26T05:01:08.604Z,21.70
2022-07-26T05:03:27.892Z,21.80
2022-07-26T05:05:54.827Z,21.80
2022-07-26T05:08:21.918Z,21.70
2022-07-26T05:10:54.911Z,21.80
2022-07-26T05:13:23.182Z,22.10
2022-07-26T05:15:58.305Z,22.10
2022-07-26T05:18:25.962Z,22.10
2022-07-26T05:20:53.148Z,22.60
2022-07-26T05:23:20.051Z,23.10
2022-07-26T05:25:47.162Z,23.20
2022-07-26T05:28:14.492Z,23.60
2022-07-26T05:30:41.569Z,23.90
2022-07-26T05:33:08.600Z,24.10
2022-07-26T05:35:35.490Z,24.50
2022-07-26T05:38:02.560Z,25.10
2022-07-26T05:40:29.607Z,24.80
2022-07-26T05:42:56.682Z,24.80
2022-07-26T05:45:23.630Z,25.00
2022-07-26T05:47:51.320Z,24.70
2022-07-26T05:50:19.335Z,24.80
2022-07-26T05:52:46.473Z,25.10
2022-07-26T05:55:13.696Z,25.20
2022-07-26T05:57:40.905Z,25.20
2022-07-26T06:00:09.369Z,25.50
2022-07-26T06:02:39.409Z,25.30
2022-07-26T06:05:07.012Z,25.30
2022-07-26T06:07:34.351Z,25.50
2022-07-26T06:10:01.390Z,25.60
2022-07-26T06:12:28.361Z,25.70
2022-07-26T06:14:55.309Z,25.80
2022-07-26T06:17:22.355Z,25.60
2022-07-26T06:19:49.398Z,25.60
2022-07-26T06:22:16.501Z,25.50
2022-07-26T06:24:43.456Z,25.60
2022-07-26T06:27:10.391Z,25.60
2022-07-26T06:29:37.384Z,25.50
2022-07-26T06:32:04.451Z,25.50
2022-07-26T06:34:31.379Z,25.60
2022-07-26T06:36:59.072Z,25.40
2022-07-26T06:39:26.410Z,25.60
2022-07-26T06:41:53.879Z,25.60
2022-07-26T06:44:22.810Z,25.80
2022-07-26T06:46:49.926Z,25.80
2022-07-26T06:49:20.760Z,26.00
2022-07-26T06:51:49.360Z,26.10
2022-07-26T06:54:16.378Z,26.30
2022-07-26T06:56:43.368Z,26.50
2022-07-26T06:59:10.336Z,26.70
2022-07-26T07:01:58.364Z,27.10
2022-07-26T07:04:24.311Z,27.20
2022-07-26T07:06:51.370Z,27.00
2022-07-26T07:09:19.796Z,26.90
2022-07-26T07:11:48.425Z,26.50
2022-07-26T07:14:18.896Z,26.30
2022-07-26T07:16:45.959Z,25.90
2022-07-26T07:19:13.147Z,25.80
2022-07-26T07:21:40.065Z,25.70
2022-07-26T07:24:08.220Z,25.90
2022-07-26T07:26:35.344Z,25.70
2022-07-26T07:29:04.055Z,25.60
2022-07-26T07:31:48.968Z,25.80
2022-07-26T07:34:19.455Z,25.70
2022-07-26T07:36:47.143Z,25.60
2022-07-26T07:39:17.281Z,25.70
2022-07-26T07:41:45.854Z,25.90
2022-07-26T07:44:13.461Z,26.10
2022-07-26T07:46:41.159Z,26.20
2022-07-26T07:49:08.431Z,26.00
2022-07-26T07:51:36.227Z,26.20
2022-07-26T07:54:05.927Z,26.00
2022-07-26T07:56:33.626Z,26.10
2022-07-26T07:59:01.123Z,26.10
2022-07-26T08:01:39.791Z,26.10
2022-07-26T08:04:09.116Z,26.00
2022-07-26T08:06:36.968Z,25.90
2022-07-26T08:09:05.389Z,26.00
2022-07-26T08:11:33.830Z,26.10
2022-07-26T08:14:01.720Z,26.00
2022-07-26T08:16:28.835Z,25.90
2022-07-26T08:18:57.869Z,25.90
2022-07-26T08:21:28.076Z,26.10
2022-07-26T08:23:55.381Z,26.30
2022-07-26T08:26:22.302Z,26.20
2022-07-26T08:28:58.290Z,25.90
2022-07-26T08:31:26.582Z,25.80
2022-07-26T08:33:53.500Z,25.70
2022-07-26T08:36:20.454Z,25.70
2022-07-26T08:38:48.505Z,25.60
2022-07-26T08:41:17.300Z,25.70
2022-07-26T08:43:52.102Z,25.70
2022-07-26T08:46:27.107Z,25.60
2022-07-26T08:48:58.084Z,25.60
2022-07-26T08:51:26.500Z,25.40
2022-07-26T08:54:04.906Z,25.50
2022-07-26T08:56:37.807Z,25.70
2022-07-26T08:59:18.627Z,25.40
2022-07-26T09:01:59.594Z,25.90
2022-07-26T09:04:32.952Z,25.70
2022-07-26T09:07:11.944Z,25.90
2022-07-26T09:09:56.288Z,25.80
2022-07-26T09:12:24.932Z,25.60
2022-07-26T09:14:52.489Z,25.70
2022-07-26T09:17:21.640Z,25.80
2022-07-26T09:20:07.430Z,25.60
2022-07-26T09:22:34.349Z,25.80
2022-07-26T09:25:01.775Z,26.00
2022-07-26T09:27:36.011Z,26.30
2022-07-26T09:30:08.959Z,26.50
2022-07-26T09:32:35.974Z,26.30
2022-07-26T09:35:45.396Z,26.00
2022-07-26T09:38:12.773Z,25.90
2022-07-26T09:40:40.278Z,25.90
2022-07-26T09:43:09.952Z,25.60
2022-07-26T09:45:37.193Z,25.60
2022-07-26T09:48:04.847Z,25.40
2022-07-26T09:50:33.441Z,25.20
2022-07-26T09:53:13.195Z,24.70
2022-07-26T09:55:46.539Z,24.60
2022-07-26T09:58:15.487Z,24.30
2022-07-26T10:00:43.677Z,24.10
2022-07-26T10:03:10.863Z,24.00
2022-07-26T10:05:38.017Z,23.90
2022-07-26T10:08:06.375Z,23.80
2022-07-26T10:11:08.796Z,23.60
2022-07-26T10:13:35.747Z,23.50
2022-07-26T10:16:02.903Z,23.70
2022-07-26T10:18:39.323Z,23.40
2022-07-26T10:21:16.638Z,23.10
2022-07-26T10:23:45.464Z,23.20
2022-07-26T10:26:31.101Z,23.10
2022-07-26T10:29:18.307Z,23.10
2022-07-26T10:31:46.122Z,22.70
2022-07-26T10:34:40.130Z,22.50
2022-07-26T10:37:10.378Z,22.20
2022-07-26T10:39:38.956Z,22.10
2022-07-26T10:42:11.157Z,22.20
2022-07-26T10:44:40.208Z,22.30
2022-07-26T10:47:07.273Z,22.50
2022-07-26T10:49:38.126Z,22.20
2022-07-26T10:52:06.530Z,22.40
2022-07-26T10:54:59.551Z,22.10
2022-07-26T10:57:31.333Z,22.20
2022-07-26T10:59:59.631Z,22.20
2022-07-26T11:02:32.784Z,22.10
2022-07-26T11:05:10.223Z,22.10
2022-07-26T11:07:50.515Z,21.90
2022-07-26T11:10:26.524Z,22.10
2022-07-26T11:13:00.276Z,22.10
2022-07-26T11:15:27.385Z,22.20
2022-07-26T11:18:10.089Z,22.20
2022-07-26T11:20:37.659Z,22.20
2022-07-26T11:23:18.977Z,22.20
2022-07-26T11:26:10.097Z,22.20
2022-07-26T11:29:06.238Z,22.20
2022-07-26T11:31:55.570Z,22.20
2022-07-26T11:34:29.575Z,22.30
2022-07-26T11:36:58.914Z,22.40
2022-07-26T11:39:31.173Z,22.40
2022-07-26T11:42:19.397Z,22.20
2022-07-26T11:44:47.881Z,22.30
2022-07-26T11:47:19.257Z,22.30
2022-07-26T11:50:00.287Z,22.40
2022-07-26T11:52:33.882Z,22.20
2022-07-26T11:55:00.941Z,22.30
2022-07-26T11:57:29.901Z,22.40
2022-07-26T11:59:58.099Z,22.40
2022-07-26T12:02:25.936Z,22.30
2022-07-26T12:05:17.068Z,22.30
2022-07-26T12:07:55.195Z,22.50
2022-07-26T12:10:22.463Z,22.40
2022-07-26T12:12:49.643Z,22.30
2022-07-26T12:15:16.722Z,22.50
2022-07-26T12:17:59.920Z,22.60
2022-07-26T12:20:26.861Z,22.80
2022-07-26T12:22:54.806Z,22.80
2022-07-26T12:25:26.585Z,22.90
2022-07-26T12:27:53.753Z,22.90
2022-07-26T12:30:21.402Z,22.90
2022-07-26T12:32:49.720Z,22.70
2022-07-26T12:35:18.312Z,22.50
2022-07-26T12:37:48.359Z,22.70
2022-07-26T12:40:16.683Z,22.60
2022-07-26T12:42:44.900Z,22.70
2022-07-26T12:45:13.364Z,22.70
2022-07-26T12:47:43.888Z,22.70
2022-07-26T12:50:12.237Z,22.80
2022-07-26T12:52:39.989Z,22.90
2022-07-26T12:55:09.187Z,22.80
2022-07-26T12:57:36.831Z,22.80
2022-07-26T13:00:06.735Z,22.70
2022-07-26T13:02:33.925Z,22.50
2022-07-26T13:05:01.352Z,22.60
2022-07-26T13:07:28.473Z,22.40
2022-07-26T13:10:30.048Z,22.30
2022-07-26T13:12:42.510Z,22.30
2022-07-26T13:15:09.970Z,22.30
2022-07-26T13:17:36.972Z,22.40
2022-07-26T13:20:04.709Z,22.60
2022-07-26T13:22:31.718Z,22.90
2022-07-26T13:24:59.419Z,23.40
2022-07-26T13:27:35.986Z,23.50
2022-07-26T13:30:04.272Z,23.40
2022-07-26T13:32:31.312Z,23.50
2022-07-26T13:34:58.237Z,23.90
2022-07-26T13:37:25.191Z,24.20
2022-07-26T13:39:52.256Z,24.60
2022-07-26T13:42:19.426Z,24.70
2022-07-26T13:44:46.315Z,24.60
2022-07-26T13:47:13.295Z,24.70
2022-07-26T13:49:40.459Z,24.70
2022-07-26T13:52:10.854Z,24.80
2022-07-26T13:54:42.215Z,24.60
2022-07-26T13:57:09.270Z,24.80
2022-07-26T13:59:36.271Z,24.50
2022-07-26T14:02:03.510Z,24.50
2022-07-26T14:04:33.381Z,24.60
2022-07-26T14:07:00.719Z,24.40
2022-07-26T14:09:27.650Z,24.50
2022-07-26T14:11:54.745Z,24.50
2022-07-26T14:14:21.693Z,24.50
2022-07-26T14:16:49.636Z,24.60
2022-07-26T14:19:17.150Z,24.60
2022-07-26T14:21:58.590Z,24.70
2022-07-26T14:24:27.839Z,24.60
2022-07-26T14:26:58.785Z,24.50
2022-07-26T14:29:27.401Z,24.50
2022-07-26T14:31:54.543Z,24.60
2022-07-26T14:34:21.567Z,24.60
2022-07-26T14:36:48.955Z,24.70
2022-07-26T14:39:15.863Z,24.70
2022-07-26T14:41:42.787Z,24.70
2022-07-26T14:44:09.927Z,24.60
2022-07-26T14:46:37.001Z,24.50
2022-07-26T14:49:04.088Z,24.50
2022-07-26T14:51:31.333Z,24.50
2022-07-26T14:53:58.413Z,24.50
2022-07-26T14:56:25.408Z,24.50
2022-07-26T14:58:52.387Z,24.50
2022-07-26T15:01:19.456Z,24.50
2022-07-26T15:03:46.610Z,24.40
2022-07-26T15:06:13.772Z,24.30
2022-07-26T15:08:40.683Z,24.10
2022-07-26T15:11:07.823Z,24.10
2022-07-26T15:13:35.546Z,24.10
2022-07-26T15:16:02.929Z,24.20
2022-07-26T15:18:30.925Z,24.30
2022-07-26T15:20:58.032Z,24.30
2022-07-26T15:23:25.591Z,24.10
2022-07-26T15:25:52.834Z,24.30
2022-07-26T15:28:19.920Z,24.40
2022-07-26T15:30:46.896Z,24.40
2022-07-26T15:33:13.937Z,24.20
2022-07-26T15:35:41.371Z,24.20
2022-07-26T15:38:08.392Z,24.20
2022-07-26T15:40:35.286Z,24.30
2022-07-26T15:43:02.248Z,24.20
2022-07-26T15:45:30.118Z,24.20
2022-07-26T15:48:13.436Z,24.10
2022-07-26T15:50:44.189Z,24.20
2022-07-26T15:53:14.842Z,24.00
2022-07-26T15:55:41.778Z,23.90
2022-07-26T15:58:08.712Z,23.90
2022-07-26T16:00:35.818Z,23.90
2022-07-26T16:03:02.856Z,23.90
2022-07-26T16:05:30.261Z,23.70
2022-07-26T16:07:57.241Z,23.70
2022-07-26T16:10:24.227Z,23.70
2022-07-26T16:12:51.192Z,23.70
2022-07-26T16:15:18.499Z,23.70
2022-07-26T16:17:45.441Z,23.70
2022-07-26T16:20:12.448Z,23.70
2022-07-26T16:22:39.315Z,23.70
2022-07-26T16:25:07.157Z,23.90
2022-07-26T16:27:34.067Z,24.00
2022-07-26T16:30:01.012Z,23.90
2022-07-26T16:32:28.013Z,23.90
2022-07-26T16:34:54.946Z,23.80
2022-07-26T16:37:21.999Z,23.70
2022-07-26T16:39:48.925Z,23.70
2022-07-26T16:42:16.098Z,23.70
2022-07-26T16:44:42.978Z,23.70
2022-07-26T16:47:10.072Z,23.70
2022-07-26T16:49:37.171Z,23.60
2022-07-26T16:52:04.314Z,23.60
2022-07-26T16:54:31.702Z,23.60
2022-07-26T16:56:59.274Z,23.60
2022-07-26T16:59:27.060Z,23.50
2022-07-26T17:01:54.484Z,23.60
2022-07-26T17:04:21.524Z,23.40
2022-07-26T17:07:14.550Z,23.30
2022-07-26T17:09:36.360Z,23.40
2022-07-26T17:12:06.628Z,23.30
2022-07-26T17:14:34.047Z,23.20
2022-07-26T17:17:00.939Z,23.20
2022-07-26T17:19:27.887Z,23.10
2022-07-26T17:21:54.843Z,23.00
2022-07-26T17:24:21.868Z,23.10
2022-07-26T17:26:48.987Z,23.10
2022-07-26T17:29:16.013Z,23.10
2022-07-26T17:31:43.046Z,23.10
2022-07-26T17:34:10.151Z,22.90
2022-07-26T17:36:37.282Z,22.90
2022-07-26T17:39:04.579Z,22.90
2022-07-26T17:41:33.597Z,22.90
2022-07-26T17:44:01.912Z,22.90
2022-07-26T17:46:29.324Z,22.90
2022-07-26T17:48:56.375Z,22.80
2022-07-26T17:51:23.411Z,22.80
2022-07-26T17:53:53.249Z,22.80
2022-07-26T17:56:20.412Z,22.70
2022-07-26T17:58:47.336Z,22.70
2022-07-26T18:01:14.358Z,22.70
2022-07-26T18:03:41.419Z,22.80
2022-07-26T18:06:08.424Z,22.70
2022-07-26T18:08:35.360Z,22.60
2022-07-26T18:11:02.371Z,22.60
2022-07-26T18:13:29.400Z,22.60
2022-07-26T18:15:57.065Z,22.60
2022-07-26T18:18:24.230Z,22.50
2022-07-26T18:20:51.285Z,22.60
2022-07-26T18:23:18.794Z,22.40
2022-07-26T18:25:45.845Z,22.40
2022-07-26T18:28:12.802Z,22.40
2022-07-26T18:30:39.962Z,22.40
2022-07-26T18:33:07.242Z,22.30
2022-07-26T18:35:34.266Z,22.30
2022-07-26T18:38:01.365Z,22.20
2022-07-26T18:40:28.289Z,22.30
2022-07-26T18:42:55.237Z,22.20
2022-07-26T18:45:22.372Z,22.10
2022-07-26T18:47:49.416Z,22.10
2022-07-26T18:50:16.993Z,22.10
2022-07-26T18:52:44.593Z,22.00
2022-07-26T18:55:13.174Z,22.00
2022-07-26T18:57:41.632Z,21.80
2022-07-26T19:00:14.182Z,21.80
2022-07-26T19:02:42.319Z,21.90
2022-07-26T19:05:09.799Z,21.80
2022-07-26T19:07:37.156Z,21.60
2022-07-26T19:10:06.539Z,21.60
2022-07-26T19:12:33.603Z,21.60
2022-07-26T19:15:00.712Z,21.60
2022-07-26T19:17:30.327Z,21.50
2022-07-26T19:20:00.235Z,21.40
2022-07-26T19:22:27.346Z,21.40
2022-07-26T19:24:54.280Z,21.50
2022-07-26T19:27:21.390Z,21.40
2022-07-26T19:29:48.587Z,21.40
2022-07-26T19:32:15.713Z,21.30
2022-07-26T19:34:42.846Z,21.30
2022-07-26T19:37:09.865Z,21.20
2022-07-26T19:39:36.872Z,21.20
2022-07-26T19:42:04.026Z,21.20
2022-07-26T19:44:30.927Z,21.20
2022-07-26T19:46:58.161Z,21.20
2022-07-26T19:49:25.391Z,21.10
2022-07-26T19:51:52.414Z,21.10
2022-07-26T19:54:19.399Z,21.10
2022-07-26T19:56:46.447Z,21.00
2022-07-26T19:59:16.872Z,21.00
2022-07-26T20:01:46.697Z,20.90
2022-07-26T20:04:13.792Z,20.90
2022-07-26T20:06:41.144Z,20.90
2022-07-26T20:09:08.408Z,20.90
2022-07-26T20:11:35.974Z,20.90
2022-07-26T20:14:03.998Z,20.90
2022-07-26T20:16:31.160Z,20.90
2022-07-26T20:18:58.771Z,20.70
2022-07-26T20:21:25.743Z,20.80
2022-07-26T20:23:52.637Z,20.70
2022-07-26T20:26:19.546Z,20.70
2022-07-26T20:28:46.578Z,20.70
2022-07-26T20:31:16.057Z,20.60
2022-07-26T20:33:43.013Z,20.60
2022-07-26T20:36:09.983Z,20.60
2022-07-26T20:38:36.934Z,20.50
2022-07-26T20:41:03.888Z,20.50
2022-07-26T20:43:32.832Z,20.50
2022-07-26T20:46:01.903Z,20.30
2022-07-26T20:48:28.914Z,20.30
2022-07-26T20:50:55.846Z,20.30
2022-07-26T20:53:22.843Z,20.20
2022-07-26T20:55:49.730Z,20.00
2022-07-26T20:58:16.664Z,20.00
2022-07-26T21:00:43.876Z,20.00
2022-07-26T21:03:10.827Z,20.00
2022-07-26T21:05:37.792Z,19.90
2022-07-26T21:10:32.628Z,19.80
2022-07-26T21:12:59.511Z,19.80
2022-07-26T21:15:26.763Z,19.80
2022-07-26T21:17:53.678Z,19.80
2022-07-26T21:20:20.998Z,19.80
2022-07-26T21:22:48.168Z,19.70
2022-07-26T21:25:15.221Z,19.70
2022-07-26T21:27:42.128Z,19.70
2022-07-26T21:30:09.742Z,19.80
2022-07-26T21:32:36.647Z,19.70
2022-07-26T21:35:04.176Z,19.60
2022-07-26T21:37:31.136Z,19.50
2022-07-26T21:40:00.855Z,19.50
2022-07-26T21:42:28.284Z,19.50
2022-07-26T21:44:55.255Z,19.50
2022-07-26T21:47:22.186Z,19.50
2022-07-26T21:49:49.134Z,19.50
2022-07-26T21:52:16.129Z,19.40
2022-07-26T21:54:43.077Z,19.40
2022-07-26T21:57:10.073Z,19.30
2022-07-26T21:59:37.065Z,19.30
2022-07-26T22:02:04.142Z,19.30
2022-07-26T22:04:31.228Z,19.30
2022-07-26T22:06:58.235Z,19.30
2022-07-26T22:09:25.349Z,19.20
2022-07-26T22:11:53.350Z,19.40
2022-07-26T22:14:21.780Z,19.30
2022-07-26T22:16:49.143Z,19.20
2022-07-26T22:19:16.290Z,19.20
2022-07-26T22:21:43.282Z,19.10
2022-07-26T22:24:10.342Z,19.10
2022-07-26T22:26:38.156Z,19.10
2022-07-26T22:29:05.202Z,19.10
2022-07-26T22:31:32.366Z,19.10
2022-07-26T22:33:59.362Z,19.00
2022-07-26T22:36:26.315Z,19.10
2022-07-26T22:38:53.461Z,19.10
2022-07-26T22:41:20.407Z,19.10
2022-07-26T22:43:47.405Z,19.10
2022-07-26T22:46:14.539Z,19.10
2022-07-26T22:48:44.544Z,19.00
2022-07-26T22:51:14.919Z,18.90
2022-07-26T22:53:41.866Z,18.90
2022-07-26T22:56:08.940Z,18.80
2022-07-26T22:58:35.990Z,18.80
2022-07-26T23:01:03.142Z,18.80
2022-07-26T23:03:30.789Z,18.90
2022-07-26T23:06:00.193Z,18.80
2022-07-26T23:08:46.585Z,18.80
2022-07-26T23:11:14.520Z,18.70
2022-07-26T23:13:41.579Z,18.80
2022-07-26T23:16:08.619Z,18.80
2022-07-26T23:18:36.468Z,18.80
2022-07-26T23:21:04.278Z,18.70
2022-07-26T23:23:31.712Z,18.70
2022-07-26T23:25:59.610Z,18.60
2022-07-26T23:28:36.758Z,18.60
2022-07-26T23:31:10.344Z,18.60
2022-07-26T23:33:51.441Z,18.60
2022-07-26T23:36:28.595Z,18.60
2022-07-26T23:38:57.347Z,18.60
2022-07-26T23:41:25.115Z,18.50
2022-07-26T23:43:52.790Z,18.50
2022-07-26T23:46:20.167Z,18.50
2022-07-26T23:48:47.706Z,18.50
2022-07-26T23:51:14.986Z,18.50
2022-07-26T23:53:42.297Z,18.50
2022-07-26T23:56:09.287Z,18.50
2022-07-26T23:58:36.388Z,18.40
